WZZ5284 EPMO-LEBL
Flight info
| Callsign | WZZ5284 |
|---|---|
| Flight time | 2h 37m |
| Altitude | 34000 |
| Route | OLILA L621 SOMOR DCT ATMIR DCT KELOD DCT POZUM DCT KOBUS DCT AMOSA DCT DKB N869 TEDGO/N0423F330 N869 NATOR DCT LUTIX DCT BENOT DCT NEMOS DCT GEVEA/N0377F270 DCT INCUS DCT BALSI DCT RETNO DCT TUPOX DCT MTG DCT DIVKO DCT NILDU DCT BISBA |
| Aircraft | A21N/M-SDE1E2E3FGIJ1J4RWXY/LB1 |
Departure
| Time | 2026-03-27 12:16 |
|---|---|
| Airport | Warsaw Modlin Airport (EPMO) |
Arrival
| Time | 2026-03-27 14:53 |
|---|---|
| Airport | Josep Tarradellas Barcelona-El Prat Airport (LEBL) |
| Time | Latitude | Longitude | Altitude | Speed | Heading |
|---|---|---|---|---|---|
| 2026-03-27 11:39 | 52.44738 | 20.65179 | 344 ft | 0 kts | 206° |
| 2026-03-27 12:08 | 52.44750 | 20.65188 | 353 ft | 3 kts | 197° |
| 2026-03-27 12:08 | 52.44768 | 20.65192 | 348 ft | 3 kts | 164° |
| 2026-03-27 12:08 | 52.44781 | 20.65181 | 354 ft | 3 kts | 110° |
| 2026-03-27 12:08 | 52.44782 | 20.65163 | 348 ft | 1 kts | 81° |
| 2026-03-27 12:09 | 52.44782 | 20.65157 | 349 ft | 0 kts | 81° |
| 2026-03-27 12:11 | 52.44784 | 20.65178 | 349 ft | 4 kts | 81° |
| 2026-03-27 12:11 | 52.44790 | 20.65254 | 343 ft | 9 kts | 82° |
| 2026-03-27 12:12 | 52.44803 | 20.65386 | 348 ft | 14 kts | 81° |
| 2026-03-27 12:12 | 52.44819 | 20.65561 | 345 ft | 16 kts | 82° |
| 2026-03-27 12:12 | 52.44836 | 20.65750 | 348 ft | 17 kts | 81° |
| 2026-03-27 12:12 | 52.44855 | 20.65949 | 346 ft | 18 kts | 81° |
| 2026-03-27 12:13 | 52.44875 | 20.66158 | 346 ft | 19 kts | 81° |
| 2026-03-27 12:13 | 52.44895 | 20.66376 | 351 ft | 20 kts | 81° |
| 2026-03-27 12:13 | 52.44917 | 20.66603 | 343 ft | 21 kts | 81° |
| 2026-03-27 12:13 | 52.44939 | 20.66839 | 347 ft | 21 kts | 85° |
| 2026-03-27 12:14 | 52.44967 | 20.67061 | 353 ft | 16 kts | 40° |
| 2026-03-27 12:14 | 52.45055 | 20.67068 | 346 ft | 14 kts | 349° |
| 2026-03-27 12:14 | 52.45157 | 20.67044 | 344 ft | 15 kts | 352° |
| 2026-03-27 12:14 | 52.45261 | 20.66996 | 350 ft | 16 kts | 322° |
| 2026-03-27 12:15 | 52.45281 | 20.66891 | 348 ft | 0 kts | 261° |
| 2026-03-27 12:15 | 52.45280 | 20.66876 | 348 ft | 10 kts | 262° |
| 2026-03-27 12:15 | 52.45236 | 20.66407 | 348 ft | 77 kts | 261° |
| 2026-03-27 12:15 | 52.45120 | 20.65183 | 346 ft | 143 kts | 262° |
| 2026-03-27 12:16 | 52.44951 | 20.63307 | 596 ft | 176 kts | 268° |
| 2026-03-27 12:16 | 52.44788 | 20.61303 | 1492 ft | 180 kts | 264° |
| 2026-03-27 12:16 | 52.44572 | 20.59199 | 2075 ft | 190 kts | 265° |
| 2026-03-27 12:16 | 52.44360 | 20.56988 | 2605 ft | 203 kts | 267° |
| 2026-03-27 12:17 | 52.44464 | 20.54703 | 3124 ft | 207 kts | 295° |
| 2026-03-27 12:17 | 52.45338 | 20.52893 | 3697 ft | 206 kts | 330° |
| 2026-03-27 12:17 | 52.46736 | 20.52123 | 4023 ft | 224 kts | 357° |
| 2026-03-27 12:17 | 52.48364 | 20.52021 | 4466 ft | 243 kts | 0° |
| 2026-03-27 12:18 | 52.50099 | 20.51936 | 5101 ft | 253 kts | 0° |
| 2026-03-27 12:18 | 52.51876 | 20.51820 | 5866 ft | 259 kts | 360° |
| 2026-03-27 12:18 | 52.53696 | 20.51681 | 6612 ft | 265 kts | 0° |
| 2026-03-27 12:18 | 52.55561 | 20.51529 | 7288 ft | 271 kts | 359° |
| 2026-03-27 12:19 | 52.57468 | 20.51334 | 7887 ft | 281 kts | 354° |
| 2026-03-27 12:19 | 52.59340 | 20.50320 | 8567 ft | 287 kts | 330° |
| 2026-03-27 12:19 | 52.60836 | 20.48160 | 9290 ft | 290 kts | 306° |
| 2026-03-27 12:19 | 52.61704 | 20.45162 | 9956 ft | 292 kts | 281° |
| 2026-03-27 12:20 | 52.61826 | 20.41815 | 10464 ft | 300 kts | 263° |
| 2026-03-27 12:20 | 52.61555 | 20.38316 | 10763 ft | 317 kts | 260° |
| 2026-03-27 12:20 | 52.61241 | 20.34646 | 11153 ft | 329 kts | 261° |
| 2026-03-27 12:20 | 52.60949 | 20.30884 | 11811 ft | 333 kts | 261° |
| 2026-03-27 12:21 | 52.60677 | 20.27081 | 12534 ft | 336 kts | 262° |
| 2026-03-27 12:21 | 52.60415 | 20.23255 | 13253 ft | 338 kts | 262° |
| 2026-03-27 12:21 | 52.60153 | 20.19398 | 13952 ft | 341 kts | 263° |
| 2026-03-27 12:21 | 52.59890 | 20.15498 | 14585 ft | 344 kts | 262° |
| 2026-03-27 12:22 | 52.59626 | 20.11580 | 15221 ft | 346 kts | 263° |
| 2026-03-27 12:22 | 52.59359 | 20.07635 | 15860 ft | 349 kts | 263° |
| 2026-03-27 12:22 | 52.59091 | 20.03656 | 16493 ft | 351 kts | 263° |
| 2026-03-27 12:22 | 52.58819 | 19.99650 | 17125 ft | 354 kts | 263° |
| 2026-03-27 12:23 | 52.58546 | 19.95608 | 17741 ft | 357 kts | 263° |
| 2026-03-27 12:23 | 52.58270 | 19.91538 | 18381 ft | 359 kts | 263° |
| 2026-03-27 12:23 | 52.57989 | 19.87450 | 18957 ft | 361 kts | 262° |
| 2026-03-27 12:23 | 52.57700 | 19.83348 | 19544 ft | 362 kts | 262° |
| 2026-03-27 12:24 | 52.57409 | 19.79228 | 20070 ft | 364 kts | 262° |
| 2026-03-27 12:24 | 52.57114 | 19.75065 | 20559 ft | 368 kts | 262° |
| 2026-03-27 12:24 | 52.56820 | 19.70867 | 21069 ft | 371 kts | 261° |
| 2026-03-27 12:24 | 52.56520 | 19.66641 | 21576 ft | 374 kts | 261° |
| 2026-03-27 12:25 | 52.56217 | 19.62391 | 22113 ft | 376 kts | 261° |
| 2026-03-27 12:25 | 52.55912 | 19.58113 | 22592 ft | 379 kts | 261° |
| 2026-03-27 12:25 | 52.55600 | 19.53796 | 23054 ft | 382 kts | 261° |
| 2026-03-27 12:25 | 52.55283 | 19.49446 | 23556 ft | 384 kts | 261° |
| 2026-03-27 12:26 | 52.54962 | 19.45073 | 23963 ft | 387 kts | 261° |
| 2026-03-27 12:26 | 52.54638 | 19.40673 | 24355 ft | 389 kts | 260° |
| 2026-03-27 12:26 | 52.54312 | 19.36251 | 24757 ft | 391 kts | 259° |
| 2026-03-27 12:26 | 52.53983 | 19.31807 | 25139 ft | 393 kts | 259° |
| 2026-03-27 12:27 | 52.53653 | 19.27342 | 25573 ft | 394 kts | 259° |
| 2026-03-27 12:27 | 52.53318 | 19.22871 | 25989 ft | 395 kts | 258° |
| 2026-03-27 12:27 | 52.52981 | 19.18394 | 26379 ft | 396 kts | 258° |
| 2026-03-27 12:27 | 52.52647 | 19.13950 | 26748 ft | 398 kts | 258° |
| 2026-03-27 12:28 | 52.52307 | 19.09425 | 27102 ft | 400 kts | 257° |
| 2026-03-27 12:28 | 52.51962 | 19.04885 | 27455 ft | 402 kts | 257° |
| 2026-03-27 12:28 | 52.51608 | 19.00260 | 27807 ft | 404 kts | 257° |
| 2026-03-27 12:28 | 52.51254 | 18.95672 | 28149 ft | 406 kts | 256° |
| 2026-03-27 12:29 | 52.50902 | 18.91128 | 28478 ft | 408 kts | 256° |
| 2026-03-27 12:29 | 52.50539 | 18.86431 | 28821 ft | 410 kts | 256° |
| 2026-03-27 12:29 | 52.50179 | 18.81844 | 29158 ft | 412 kts | 256° |
| 2026-03-27 12:29 | 52.49804 | 18.77108 | 29483 ft | 414 kts | 255° |
| 2026-03-27 12:30 | 52.49440 | 18.72480 | 29778 ft | 416 kts | 256° |
| 2026-03-27 12:30 | 52.49064 | 18.67753 | 30019 ft | 419 kts | 256° |
| 2026-03-27 12:30 | 52.48680 | 18.62998 | 30277 ft | 422 kts | 256° |
| 2026-03-27 12:30 | 52.48295 | 18.58213 | 30484 ft | 424 kts | 256° |
| 2026-03-27 12:31 | 52.47911 | 18.53404 | 30682 ft | 427 kts | 256° |
| 2026-03-27 12:31 | 52.47518 | 18.48574 | 30887 ft | 429 kts | 257° |
| 2026-03-27 12:31 | 52.47118 | 18.43716 | 31085 ft | 431 kts | 257° |
| 2026-03-27 12:31 | 52.46848 | 18.40410 | 31217 ft | 433 kts | 257° |
| 2026-03-27 12:32 | 52.46446 | 18.35512 | 31421 ft | 435 kts | 257° |
| 2026-03-27 12:32 | 52.46045 | 18.30656 | 31658 ft | 435 kts | 257° |
| 2026-03-27 12:32 | 52.45629 | 18.25679 | 31898 ft | 436 kts | 258° |
| 2026-03-27 12:32 | 52.45222 | 18.20817 | 32120 ft | 436 kts | 258° |
| 2026-03-27 12:33 | 52.44809 | 18.15882 | 32365 ft | 437 kts | 259° |
| 2026-03-27 12:33 | 52.44390 | 18.10886 | 32594 ft | 437 kts | 260° |
| 2026-03-27 12:33 | 52.43975 | 18.06020 | 32798 ft | 437 kts | 260° |
| 2026-03-27 12:33 | 52.43553 | 18.01079 | 33005 ft | 438 kts | 260° |
| 2026-03-27 12:34 | 52.43130 | 17.96132 | 33210 ft | 439 kts | 260° |
| 2026-03-27 12:34 | 52.42704 | 17.91181 | 33402 ft | 439 kts | 260° |
| 2026-03-27 12:34 | 52.42278 | 17.86231 | 33613 ft | 439 kts | 261° |
| 2026-03-27 12:34 | 52.41846 | 17.81289 | 33834 ft | 439 kts | 261° |
| 2026-03-27 12:35 | 52.41413 | 17.76342 | 34033 ft | 439 kts | 261° |
| 2026-03-27 12:35 | 52.40981 | 17.71403 | 34191 ft | 438 kts | 261° |
| 2026-03-27 12:35 | 52.40544 | 17.66472 | 34215 ft | 437 kts | 261° |
| 2026-03-27 12:36 | 52.39667 | 17.56629 | 34184 ft | 438 kts | 262° |
| 2026-03-27 12:36 | 52.38780 | 17.46733 | 34183 ft | 438 kts | 263° |
| 2026-03-27 12:37 | 52.37885 | 17.36874 | 34175 ft | 439 kts | 262° |
| 2026-03-27 12:37 | 52.36979 | 17.26998 | 34183 ft | 438 kts | 262° |
| 2026-03-27 12:38 | 52.36071 | 17.17157 | 34183 ft | 439 kts | 262° |
| 2026-03-27 12:38 | 52.35151 | 17.07276 | 34186 ft | 439 kts | 263° |
| 2026-03-27 12:39 | 52.34213 | 16.97334 | 34182 ft | 444 kts | 262° |
| 2026-03-27 12:39 | 52.33270 | 16.87354 | 34174 ft | 444 kts | 263° |
| 2026-03-27 12:40 | 52.32313 | 16.77382 | 34173 ft | 444 kts | 262° |
| 2026-03-27 12:40 | 52.31344 | 16.67412 | 34176 ft | 444 kts | 262° |
| 2026-03-27 12:41 | 52.30369 | 16.57439 | 34179 ft | 444 kts | 262° |
| 2026-03-27 12:41 | 52.29385 | 16.47452 | 34175 ft | 448 kts | 263° |
| 2026-03-27 12:42 | 52.28383 | 16.37392 | 34187 ft | 449 kts | 263° |
| 2026-03-27 12:42 | 52.27371 | 16.27331 | 34185 ft | 449 kts | 263° |
| 2026-03-27 12:43 | 52.26353 | 16.17267 | 34192 ft | 449 kts | 263° |
| 2026-03-27 12:43 | 52.25331 | 16.07275 | 34189 ft | 449 kts | 262° |
| 2026-03-27 12:44 | 52.24294 | 15.97236 | 34178 ft | 449 kts | 263° |
| 2026-03-27 12:44 | 52.22691 | 15.87347 | 34202 ft | 456 kts | 248° |
| 2026-03-27 12:45 | 52.19341 | 15.78503 | 34195 ft | 460 kts | 237° |
| 2026-03-27 12:45 | 52.15642 | 15.69980 | 34194 ft | 461 kts | 237° |
| 2026-03-27 12:46 | 52.11983 | 15.61409 | 34208 ft | 461 kts | 237° |
| 2026-03-27 12:46 | 52.08332 | 15.52829 | 34192 ft | 461 kts | 237° |
| 2026-03-27 12:47 | 52.04673 | 15.44263 | 34188 ft | 461 kts | 237° |
| 2026-03-27 12:47 | 52.01013 | 15.35719 | 34198 ft | 461 kts | 237° |
| 2026-03-27 12:48 | 51.97320 | 15.27132 | 34188 ft | 467 kts | 238° |
| 2026-03-27 12:48 | 51.93592 | 15.18496 | 34198 ft | 468 kts | 238° |
| 2026-03-27 12:49 | 51.89854 | 15.09856 | 34197 ft | 468 kts | 238° |
| 2026-03-27 12:49 | 51.86106 | 15.01224 | 34197 ft | 468 kts | 238° |
| 2026-03-27 12:50 | 51.82354 | 14.92612 | 34199 ft | 468 kts | 238° |
| 2026-03-27 12:50 | 51.78588 | 14.84015 | 34198 ft | 469 kts | 237° |
| 2026-03-27 12:51 | 51.74817 | 14.75424 | 34198 ft | 469 kts | 237° |
| 2026-03-27 12:51 | 51.71018 | 14.66878 | 34201 ft | 470 kts | 236° |
| 2026-03-27 12:52 | 51.67082 | 14.58485 | 34197 ft | 474 kts | 236° |
| 2026-03-27 12:52 | 51.63085 | 14.50022 | 34203 ft | 475 kts | 236° |
| 2026-03-27 12:53 | 51.59077 | 14.41550 | 34206 ft | 476 kts | 236° |
| 2026-03-27 12:53 | 51.55060 | 14.33097 | 34207 ft | 476 kts | 236° |
| 2026-03-27 12:54 | 51.51007 | 14.24685 | 34204 ft | 477 kts | 233° |
| 2026-03-27 12:54 | 51.44458 | 14.12636 | 34208 ft | 478 kts | 232° |
| 2026-03-27 12:55 | 51.40069 | 14.04634 | 34209 ft | 479 kts | 231° |
| 2026-03-27 12:55 | 51.35670 | 13.96624 | 34210 ft | 479 kts | 231° |
| 2026-03-27 12:56 | 51.31269 | 13.88634 | 34221 ft | 479 kts | 231° |
| 2026-03-27 12:56 | 51.26866 | 13.80660 | 34226 ft | 478 kts | 231° |
| 2026-03-27 12:57 | 51.22456 | 13.72706 | 34231 ft | 479 kts | 231° |
| 2026-03-27 12:57 | 51.18034 | 13.64761 | 34231 ft | 479 kts | 231° |
| 2026-03-27 12:58 | 51.13612 | 13.56823 | 34229 ft | 479 kts | 231° |
| 2026-03-27 12:58 | 51.09174 | 13.48907 | 34229 ft | 479 kts | 231° |
| 2026-03-27 12:59 | 51.04737 | 13.41001 | 34226 ft | 479 kts | 231° |
| 2026-03-27 12:59 | 51.00317 | 13.33156 | 34227 ft | 479 kts | 231° |
| 2026-03-27 13:00 | 50.95839 | 13.25228 | 34224 ft | 485 kts | 231° |
| 2026-03-27 13:00 | 50.91322 | 13.17254 | 34229 ft | 486 kts | 231° |
| 2026-03-27 13:01 | 50.86798 | 13.09293 | 34228 ft | 486 kts | 231° |
| 2026-03-27 13:01 | 50.82274 | 13.01357 | 34240 ft | 486 kts | 231° |
| 2026-03-27 13:02 | 50.77734 | 12.93413 | 34242 ft | 487 kts | 231° |
| 2026-03-27 13:02 | 50.73190 | 12.85491 | 34245 ft | 487 kts | 231° |
| 2026-03-27 13:03 | 50.68638 | 12.77580 | 34245 ft | 486 kts | 231° |
| 2026-03-27 13:03 | 50.64083 | 12.69694 | 34253 ft | 487 kts | 231° |
| 2026-03-27 13:04 | 50.59507 | 12.61798 | 34231 ft | 491 kts | 231° |
| 2026-03-27 13:04 | 50.54893 | 12.53861 | 34249 ft | 492 kts | 231° |
| 2026-03-27 13:05 | 50.50262 | 12.45919 | 34249 ft | 492 kts | 231° |
| 2026-03-27 13:05 | 50.45637 | 12.38000 | 34249 ft | 492 kts | 231° |
| 2026-03-27 13:06 | 50.41001 | 12.30099 | 34247 ft | 492 kts | 231° |
| 2026-03-27 13:06 | 50.36365 | 12.22205 | 34243 ft | 492 kts | 231° |
| 2026-03-27 13:07 | 50.31725 | 12.14333 | 34219 ft | 492 kts | 231° |
| 2026-03-27 13:07 | 50.27075 | 12.06475 | 34211 ft | 492 kts | 231° |
| 2026-03-27 13:08 | 50.22416 | 11.98618 | 34188 ft | 494 kts | 231° |
| 2026-03-27 13:08 | 50.17759 | 11.90799 | 34210 ft | 495 kts | 231° |
| 2026-03-27 13:09 | 50.13033 | 11.82882 | 34207 ft | 495 kts | 231° |
| 2026-03-27 13:09 | 50.08325 | 11.75041 | 34216 ft | 496 kts | 231° |
| 2026-03-27 13:10 | 50.03625 | 11.67208 | 34222 ft | 496 kts | 231° |
| 2026-03-27 13:10 | 49.98897 | 11.59360 | 34221 ft | 497 kts | 231° |
| 2026-03-27 13:11 | 49.94166 | 11.51530 | 34229 ft | 497 kts | 231° |
| 2026-03-27 13:11 | 49.89428 | 11.43720 | 34226 ft | 497 kts | 231° |
| 2026-03-27 13:12 | 49.84711 | 11.35965 | 34215 ft | 498 kts | 231° |
| 2026-03-27 13:12 | 49.79941 | 11.28159 | 34231 ft | 499 kts | 231° |
| 2026-03-27 13:13 | 49.75172 | 11.20359 | 34237 ft | 499 kts | 231° |
| 2026-03-27 13:13 | 49.70395 | 11.12579 | 34247 ft | 499 kts | 231° |
| 2026-03-27 13:14 | 49.65614 | 11.04814 | 34253 ft | 499 kts | 231° |
| 2026-03-27 13:14 | 49.60813 | 10.97045 | 34258 ft | 500 kts | 230° |
| 2026-03-27 13:15 | 49.56008 | 10.89289 | 34256 ft | 500 kts | 230° |
| 2026-03-27 13:15 | 49.51195 | 10.81551 | 34256 ft | 501 kts | 230° |
| 2026-03-27 13:16 | 49.46332 | 10.73860 | 34238 ft | 502 kts | 230° |
| 2026-03-27 13:16 | 49.41447 | 10.66189 | 34221 ft | 503 kts | 230° |
| 2026-03-27 13:17 | 49.36553 | 10.58516 | 34216 ft | 503 kts | 230° |
| 2026-03-27 13:17 | 49.31647 | 10.50851 | 34226 ft | 503 kts | 230° |
| 2026-03-27 13:18 | 49.26754 | 10.43201 | 34236 ft | 503 kts | 230° |
| 2026-03-27 13:18 | 49.22670 | 10.36848 | 34244 ft | 503 kts | 230° |
| 2026-03-27 13:19 | 49.17731 | 10.29189 | 34252 ft | 503 kts | 230° |
| 2026-03-27 13:19 | 49.12996 | 10.21449 | 34253 ft | 499 kts | 236° |
| 2026-03-27 13:20 | 49.08640 | 10.13175 | 34234 ft | 501 kts | 236° |
| 2026-03-27 13:20 | 49.04267 | 10.04877 | 34253 ft | 502 kts | 236° |
| 2026-03-27 13:21 | 48.99877 | 9.96595 | 34253 ft | 502 kts | 236° |
| 2026-03-27 13:21 | 48.95479 | 9.88328 | 34247 ft | 502 kts | 236° |
| 2026-03-27 13:22 | 48.91046 | 9.80017 | 34244 ft | 503 kts | 236° |
| 2026-03-27 13:22 | 48.86667 | 9.71836 | 34242 ft | 503 kts | 236° |
| 2026-03-27 13:23 | 48.82242 | 9.63600 | 34189 ft | 505 kts | 236° |
| 2026-03-27 13:23 | 48.77761 | 9.55274 | 34221 ft | 506 kts | 236° |
| 2026-03-27 13:24 | 48.73330 | 9.47072 | 34231 ft | 507 kts | 236° |
| 2026-03-27 13:24 | 48.68862 | 9.38820 | 34233 ft | 507 kts | 236° |
| 2026-03-27 13:25 | 48.64379 | 9.30580 | 34254 ft | 507 kts | 236° |
| 2026-03-27 13:25 | 48.60065 | 9.22186 | 34260 ft | 504 kts | 240° |
| 2026-03-27 13:26 | 48.56009 | 9.13565 | 34261 ft | 503 kts | 240° |
| 2026-03-27 13:26 | 48.52032 | 9.05133 | 34226 ft | 504 kts | 241° |
| 2026-03-27 13:27 | 48.47939 | 8.96508 | 34243 ft | 505 kts | 241° |
| 2026-03-27 13:27 | 48.43847 | 8.87923 | 34247 ft | 505 kts | 240° |
| 2026-03-27 13:28 | 48.39751 | 8.79345 | 34250 ft | 505 kts | 240° |
| 2026-03-27 13:28 | 48.35644 | 8.70772 | 34246 ft | 505 kts | 240° |
| 2026-03-27 13:29 | 48.31538 | 8.62212 | 34248 ft | 505 kts | 240° |
| 2026-03-27 13:29 | 48.27415 | 8.53661 | 34237 ft | 505 kts | 240° |
| 2026-03-27 13:30 | 48.23290 | 8.45119 | 34252 ft | 505 kts | 240° |
| 2026-03-27 13:30 | 48.19160 | 8.36592 | 34245 ft | 506 kts | 240° |
| 2026-03-27 13:31 | 48.16875 | 8.32551 | 34246 ft | 513 kts | 229° |
| 2026-03-27 13:31 | 48.14089 | 8.29150 | 34248 ft | 520 kts | 217° |
| 2026-03-27 13:31 | 48.07968 | 8.23310 | 34249 ft | 522 kts | 214° |
| 2026-03-27 13:32 | 48.01830 | 8.17501 | 34255 ft | 522 kts | 215° |
| 2026-03-27 13:32 | 47.95720 | 8.11647 | 34268 ft | 522 kts | 215° |
| 2026-03-27 13:33 | 47.89608 | 8.05792 | 34262 ft | 522 kts | 215° |
| 2026-03-27 13:33 | 47.83481 | 7.99956 | 34247 ft | 523 kts | 215° |
| 2026-03-27 13:34 | 47.77355 | 7.94123 | 34245 ft | 523 kts | 215° |
| 2026-03-27 13:34 | 47.71235 | 7.88301 | 34256 ft | 523 kts | 215° |
| 2026-03-27 13:35 | 47.65095 | 7.82501 | 34252 ft | 523 kts | 215° |
| 2026-03-27 13:35 | 47.58963 | 7.76699 | 34255 ft | 523 kts | 215° |
| 2026-03-27 13:36 | 47.52806 | 7.70920 | 34264 ft | 523 kts | 215° |
| 2026-03-27 13:36 | 47.46653 | 7.65153 | 34257 ft | 524 kts | 215° |
| 2026-03-27 13:37 | 47.40495 | 7.59375 | 34243 ft | 524 kts | 215° |
| 2026-03-27 13:37 | 47.34343 | 7.53622 | 34236 ft | 524 kts | 214° |
| 2026-03-27 13:38 | 47.28186 | 7.47894 | 34233 ft | 523 kts | 214° |
| 2026-03-27 13:38 | 47.22025 | 7.42177 | 34209 ft | 524 kts | 214° |
| 2026-03-27 13:39 | 47.16105 | 7.36057 | 34225 ft | 517 kts | 228° |
| 2026-03-27 13:39 | 47.11515 | 7.28074 | 34237 ft | 509 kts | 238° |
| 2026-03-27 13:40 | 47.07163 | 7.19872 | 34213 ft | 510 kts | 238° |
| 2026-03-27 13:40 | 47.02737 | 7.11724 | 34197 ft | 510 kts | 237° |
| 2026-03-27 13:41 | 46.98299 | 7.03615 | 34216 ft | 510 kts | 237° |
| 2026-03-27 13:41 | 46.93860 | 6.95523 | 34182 ft | 510 kts | 238° |
| 2026-03-27 13:42 | 46.89018 | 6.87974 | 34217 ft | 517 kts | 225° |
| 2026-03-27 13:42 | 46.83619 | 6.81557 | 34232 ft | 519 kts | 223° |
| 2026-03-27 13:43 | 46.75205 | 6.71625 | 34225 ft | 519 kts | 223° |
| 2026-03-27 13:44 | 46.69594 | 6.64971 | 34216 ft | 520 kts | 223° |
| 2026-03-27 13:44 | 46.63932 | 6.58279 | 34209 ft | 520 kts | 223° |
| 2026-03-27 13:45 | 46.58311 | 6.51660 | 34199 ft | 520 kts | 223° |
| 2026-03-27 13:45 | 46.52722 | 6.45093 | 34150 ft | 520 kts | 223° |
| 2026-03-27 13:46 | 46.47083 | 6.38486 | 34175 ft | 516 kts | 223° |
| 2026-03-27 13:46 | 46.41535 | 6.32001 | 34187 ft | 516 kts | 223° |
| 2026-03-27 13:47 | 46.36451 | 6.26075 | 34193 ft | 517 kts | 223° |
| 2026-03-27 13:47 | 46.31001 | 6.19738 | 34200 ft | 517 kts | 223° |
| 2026-03-27 13:48 | 46.24998 | 6.13949 | 34194 ft | 524 kts | 205° |
| 2026-03-27 13:48 | 46.21541 | 6.12259 | 34197 ft | 525 kts | 192° |
| 2026-03-27 13:48 | 46.17948 | 6.11358 | 34209 ft | 525 kts | 186° |
| 2026-03-27 13:49 | 46.10715 | 6.09917 | 34194 ft | 525 kts | 186° |
| 2026-03-27 13:49 | 46.03494 | 6.08356 | 34141 ft | 525 kts | 187° |
| 2026-03-27 13:50 | 45.96264 | 6.06752 | 34151 ft | 526 kts | 187° |
| 2026-03-27 13:50 | 45.89022 | 6.05159 | 34143 ft | 527 kts | 187° |
| 2026-03-27 13:51 | 45.81767 | 6.03560 | 34142 ft | 527 kts | 187° |
| 2026-03-27 13:51 | 45.74517 | 6.01954 | 34143 ft | 528 kts | 187° |
| 2026-03-27 13:52 | 45.67255 | 6.00357 | 34169 ft | 528 kts | 187° |
| 2026-03-27 13:52 | 45.59993 | 5.98763 | 34165 ft | 528 kts | 187° |
| 2026-03-27 13:53 | 45.52754 | 5.97174 | 34165 ft | 527 kts | 187° |
| 2026-03-27 13:53 | 45.45529 | 5.95392 | 34163 ft | 528 kts | 191° |
| 2026-03-27 13:54 | 45.38349 | 5.93142 | 34152 ft | 529 kts | 192° |
| 2026-03-27 13:54 | 45.31167 | 5.90897 | 34134 ft | 528 kts | 191° |
| 2026-03-27 13:55 | 45.23976 | 5.88662 | 34123 ft | 529 kts | 192° |
| 2026-03-27 13:55 | 45.16785 | 5.86432 | 34117 ft | 529 kts | 192° |
| 2026-03-27 13:56 | 45.09591 | 5.84203 | 34100 ft | 529 kts | 192° |
| 2026-03-27 13:56 | 45.02412 | 5.81981 | 34088 ft | 529 kts | 192° |
| 2026-03-27 13:57 | 44.95217 | 5.79769 | 34055 ft | 529 kts | 192° |
| 2026-03-27 13:57 | 44.88013 | 5.77561 | 34044 ft | 529 kts | 192° |
| 2026-03-27 13:58 | 44.80827 | 5.75359 | 34036 ft | 529 kts | 192° |
| 2026-03-27 13:58 | 44.73640 | 5.73161 | 34038 ft | 528 kts | 192° |
| 2026-03-27 13:59 | 44.66461 | 5.70972 | 33939 ft | 528 kts | 192° |
| 2026-03-27 13:59 | 44.59288 | 5.68794 | 33977 ft | 527 kts | 192° |
| 2026-03-27 14:00 | 44.53324 | 5.66985 | 33981 ft | 528 kts | 192° |
| 2026-03-27 14:00 | 44.46139 | 5.64807 | 33972 ft | 528 kts | 192° |
| 2026-03-27 14:01 | 44.38964 | 5.62609 | 33973 ft | 528 kts | 195° |
| 2026-03-27 14:01 | 44.32064 | 5.59234 | 33959 ft | 526 kts | 204° |
| 2026-03-27 14:02 | 44.25275 | 5.55401 | 33968 ft | 527 kts | 204° |
| 2026-03-27 14:02 | 44.18453 | 5.51640 | 33965 ft | 527 kts | 204° |
| 2026-03-27 14:03 | 44.11626 | 5.47929 | 33968 ft | 527 kts | 203° |
| 2026-03-27 14:03 | 44.04794 | 5.44221 | 33976 ft | 527 kts | 204° |
| 2026-03-27 14:04 | 43.97963 | 5.40517 | 33942 ft | 527 kts | 204° |
| 2026-03-27 14:04 | 43.91148 | 5.36825 | 33948 ft | 526 kts | 204° |
| 2026-03-27 14:05 | 43.84339 | 5.33149 | 33881 ft | 525 kts | 204° |
| 2026-03-27 14:05 | 43.77534 | 5.29480 | 33943 ft | 524 kts | 204° |
| 2026-03-27 14:06 | 43.70739 | 5.25830 | 33968 ft | 524 kts | 204° |
| 2026-03-27 14:06 | 43.63929 | 5.22176 | 33970 ft | 525 kts | 204° |
| 2026-03-27 14:07 | 43.57156 | 5.18558 | 33955 ft | 525 kts | 204° |
| 2026-03-27 14:07 | 43.50293 | 5.14898 | 33980 ft | 526 kts | 204° |
| 2026-03-27 14:08 | 43.43514 | 5.11296 | 33964 ft | 526 kts | 204° |
| 2026-03-27 14:08 | 43.36900 | 5.07114 | 33971 ft | 518 kts | 218° |
| 2026-03-27 14:09 | 43.30972 | 5.01550 | 33982 ft | 516 kts | 221° |
| 2026-03-27 14:09 | 43.25077 | 4.95920 | 33991 ft | 516 kts | 220° |
| 2026-03-27 14:10 | 43.19152 | 4.90373 | 33980 ft | 513 kts | 220° |
| 2026-03-27 14:10 | 43.13261 | 4.84856 | 34011 ft | 514 kts | 220° |
| 2026-03-27 14:11 | 43.07366 | 4.79336 | 34023 ft | 513 kts | 220° |
| 2026-03-27 14:11 | 43.01877 | 4.73231 | 34024 ft | 506 kts | 229° |
| 2026-03-27 14:12 | 42.96623 | 4.66835 | 34031 ft | 506 kts | 229° |
| 2026-03-27 14:12 | 42.91362 | 4.60467 | 34035 ft | 505 kts | 229° |
| 2026-03-27 14:13 | 42.86091 | 4.54125 | 34008 ft | 505 kts | 229° |
| 2026-03-27 14:13 | 42.80839 | 4.47821 | 34040 ft | 503 kts | 229° |
| 2026-03-27 14:14 | 42.75592 | 4.41533 | 34054 ft | 503 kts | 229° |
| 2026-03-27 14:14 | 42.70338 | 4.35257 | 34055 ft | 503 kts | 228° |
| 2026-03-27 14:15 | 42.65080 | 4.28989 | 34042 ft | 502 kts | 228° |
| 2026-03-27 14:15 | 42.62467 | 4.25879 | 33600 ft | 496 kts | 229° |
| 2026-03-27 14:15 | 42.59886 | 4.22813 | 32999 ft | 492 kts | 228° |
| 2026-03-27 14:15 | 42.57318 | 4.19767 | 32383 ft | 488 kts | 229° |
| 2026-03-27 14:16 | 42.54775 | 4.16753 | 31733 ft | 484 kts | 228° |
| 2026-03-27 14:16 | 42.52246 | 4.13761 | 31175 ft | 480 kts | 228° |
| 2026-03-27 14:16 | 42.49740 | 4.10814 | 30652 ft | 475 kts | 228° |
| 2026-03-27 14:16 | 42.47257 | 4.07891 | 30126 ft | 470 kts | 228° |
| 2026-03-27 14:17 | 42.44803 | 4.04994 | 29507 ft | 466 kts | 228° |
| 2026-03-27 14:17 | 42.42375 | 4.02126 | 28917 ft | 461 kts | 228° |
| 2026-03-27 14:17 | 42.39961 | 3.99288 | 28376 ft | 456 kts | 228° |
| 2026-03-27 14:17 | 42.37583 | 3.96498 | 27858 ft | 451 kts | 228° |
| 2026-03-27 14:18 | 42.35231 | 3.93731 | 27360 ft | 445 kts | 228° |
| 2026-03-27 14:18 | 42.32908 | 3.90996 | 26858 ft | 441 kts | 229° |
| 2026-03-27 14:18 | 42.30611 | 3.88279 | 26358 ft | 436 kts | 229° |
| 2026-03-27 14:18 | 42.28333 | 3.85589 | 25863 ft | 433 kts | 229° |
| 2026-03-27 14:19 | 42.26072 | 3.82934 | 25374 ft | 429 kts | 229° |
| 2026-03-27 14:19 | 42.23828 | 3.80307 | 24885 ft | 425 kts | 228° |
| 2026-03-27 14:19 | 42.21604 | 3.77707 | 24400 ft | 421 kts | 227° |
| 2026-03-27 14:19 | 42.19425 | 3.75161 | 23921 ft | 419 kts | 227° |
| 2026-03-27 14:20 | 42.17201 | 3.72565 | 23415 ft | 416 kts | 227° |
| 2026-03-27 14:20 | 42.15051 | 3.70061 | 22901 ft | 413 kts | 227° |
| 2026-03-27 14:20 | 42.12891 | 3.67545 | 22408 ft | 409 kts | 227° |
| 2026-03-27 14:20 | 42.10745 | 3.65049 | 21899 ft | 406 kts | 227° |
| 2026-03-27 14:21 | 42.08748 | 3.62437 | 21404 ft | 392 kts | 240° |
| 2026-03-27 14:21 | 42.07403 | 3.59376 | 20957 ft | 372 kts | 255° |
| 2026-03-27 14:21 | 42.06387 | 3.56212 | 20536 ft | 366 kts | 258° |
| 2026-03-27 14:21 | 42.05408 | 3.53063 | 20112 ft | 364 kts | 257° |
| 2026-03-27 14:22 | 42.04415 | 3.49941 | 19697 ft | 362 kts | 257° |
| 2026-03-27 14:22 | 42.03407 | 3.46843 | 19302 ft | 361 kts | 256° |
| 2026-03-27 14:22 | 42.02394 | 3.43772 | 18900 ft | 360 kts | 256° |
| 2026-03-27 14:22 | 42.01376 | 3.40703 | 18499 ft | 359 kts | 256° |
| 2026-03-27 14:23 | 42.00360 | 3.37647 | 18073 ft | 358 kts | 256° |
| 2026-03-27 14:23 | 41.99342 | 3.34603 | 17644 ft | 356 kts | 256° |
| 2026-03-27 14:23 | 41.98325 | 3.31573 | 17240 ft | 355 kts | 256° |
| 2026-03-27 14:23 | 41.97311 | 3.28556 | 16843 ft | 354 kts | 256° |
| 2026-03-27 14:24 | 41.96301 | 3.25549 | 16447 ft | 353 kts | 256° |
| 2026-03-27 14:24 | 41.95297 | 3.22545 | 16075 ft | 352 kts | 255° |
| 2026-03-27 14:24 | 41.94451 | 3.20242 | 15776 ft | 359 kts | 248° |
| 2026-03-27 14:24 | 41.93039 | 3.17441 | 15419 ft | 364 kts | 243° |
| 2026-03-27 14:25 | 41.91543 | 3.14696 | 15047 ft | 365 kts | 242° |
| 2026-03-27 14:25 | 41.90042 | 3.11942 | 14646 ft | 366 kts | 242° |
| 2026-03-27 14:25 | 41.88551 | 3.09189 | 14227 ft | 363 kts | 242° |
| 2026-03-27 14:25 | 41.87082 | 3.06467 | 13817 ft | 358 kts | 243° |
| 2026-03-27 14:26 | 41.85639 | 3.03769 | 13349 ft | 353 kts | 241° |
| 2026-03-27 14:26 | 41.84219 | 3.01116 | 12964 ft | 348 kts | 242° |
| 2026-03-27 14:26 | 41.82825 | 2.98504 | 12569 ft | 341 kts | 242° |
| 2026-03-27 14:26 | 41.81455 | 2.95941 | 12192 ft | 336 kts | 242° |
| 2026-03-27 14:27 | 41.80103 | 2.93413 | 11803 ft | 331 kts | 242° |
| 2026-03-27 14:27 | 41.78767 | 2.90919 | 11423 ft | 327 kts | 242° |
| 2026-03-27 14:27 | 41.77450 | 2.88461 | 11057 ft | 323 kts | 243° |
| 2026-03-27 14:27 | 41.76153 | 2.86043 | 10688 ft | 318 kts | 242° |
| 2026-03-27 14:28 | 41.74868 | 2.83659 | 10329 ft | 313 kts | 242° |
| 2026-03-27 14:28 | 41.73698 | 2.81490 | 10040 ft | 308 kts | 242° |
| 2026-03-27 14:28 | 41.72457 | 2.79179 | 9762 ft | 305 kts | 243° |
| 2026-03-27 14:28 | 41.71243 | 2.76920 | 9542 ft | 299 kts | 243° |
| 2026-03-27 14:29 | 41.70030 | 2.74695 | 9357 ft | 301 kts | 239° |
| 2026-03-27 14:29 | 41.68378 | 2.72828 | 9217 ft | 319 kts | 215° |
| 2026-03-27 14:29 | 41.66370 | 2.71453 | 9102 ft | 320 kts | 211° |
| 2026-03-27 14:29 | 41.64397 | 2.70187 | 8884 ft | 318 kts | 210° |
| 2026-03-27 14:30 | 41.62390 | 2.68877 | 8592 ft | 316 kts | 211° |
| 2026-03-27 14:30 | 41.60452 | 2.67589 | 8228 ft | 314 kts | 211° |
| 2026-03-27 14:30 | 41.58514 | 2.66288 | 7863 ft | 308 kts | 210° |
| 2026-03-27 14:30 | 41.56632 | 2.65019 | 7616 ft | 299 kts | 210° |
| 2026-03-27 14:31 | 41.54764 | 2.63757 | 7253 ft | 295 kts | 210° |
| 2026-03-27 14:31 | 41.52977 | 2.62548 | 6997 ft | 287 kts | 209° |
| 2026-03-27 14:31 | 41.51241 | 2.61377 | 6927 ft | 272 kts | 210° |
| 2026-03-27 14:31 | 41.49537 | 2.60234 | 6857 ft | 276 kts | 209° |
| 2026-03-27 14:32 | 41.47822 | 2.59080 | 6785 ft | 276 kts | 209° |
| 2026-03-27 14:32 | 41.46112 | 2.57929 | 6712 ft | 275 kts | 209° |
| 2026-03-27 14:32 | 41.44413 | 2.56784 | 6568 ft | 272 kts | 209° |
| 2026-03-27 14:32 | 41.42742 | 2.55657 | 6286 ft | 266 kts | 209° |
| 2026-03-27 14:33 | 41.41131 | 2.54557 | 6093 ft | 254 kts | 212° |
| 2026-03-27 14:33 | 41.39896 | 2.53052 | 5980 ft | 230 kts | 242° |
| 2026-03-27 14:33 | 41.39407 | 2.51142 | 5729 ft | 214 kts | 267° |
| 2026-03-27 14:33 | 41.39324 | 2.49184 | 5349 ft | 211 kts | 271° |
| 2026-03-27 14:34 | 41.39293 | 2.47240 | 4989 ft | 208 kts | 272° |
| 2026-03-27 14:34 | 41.39270 | 2.45345 | 4653 ft | 202 kts | 272° |
| 2026-03-27 14:34 | 41.39256 | 2.43499 | 4279 ft | 197 kts | 272° |
| 2026-03-27 14:34 | 41.39239 | 2.41709 | 4029 ft | 187 kts | 272° |
| 2026-03-27 14:35 | 41.39222 | 2.39992 | 4029 ft | 187 kts | 271° |
| 2026-03-27 14:35 | 41.39213 | 2.38288 | 4029 ft | 178 kts | 271° |
| 2026-03-27 14:35 | 41.39206 | 2.36668 | 4002 ft | 167 kts | 272° |
| 2026-03-27 14:35 | 41.38985 | 2.35196 | 3925 ft | 164 kts | 254° |
| 2026-03-27 14:36 | 41.38085 | 2.32396 | 3628 ft | 164 kts | 249° |
| 2026-03-27 14:36 | 41.37620 | 2.31031 | 3440 ft | 155 kts | 248° |
| 2026-03-27 14:36 | 41.37198 | 2.29791 | 3221 ft | 143 kts | 248° |
| 2026-03-27 14:37 | 41.36793 | 2.28600 | 3023 ft | 140 kts | 244° |
| 2026-03-27 14:37 | 41.36394 | 2.27431 | 2835 ft | 137 kts | 241° |
| 2026-03-27 14:37 | 41.36000 | 2.26271 | 2641 ft | 135 kts | 239° |
| 2026-03-27 14:37 | 41.35609 | 2.25126 | 2456 ft | 137 kts | 240° |
| 2026-03-27 14:38 | 41.35218 | 2.23982 | 2283 ft | 135 kts | 238° |
| 2026-03-27 14:38 | 41.34828 | 2.22836 | 2092 ft | 136 kts | 241° |
| 2026-03-27 14:38 | 41.34438 | 2.21692 | 1902 ft | 136 kts | 240° |
| 2026-03-27 14:38 | 41.34048 | 2.20550 | 1714 ft | 136 kts | 240° |
| 2026-03-27 14:39 | 41.33657 | 2.19401 | 1515 ft | 136 kts | 240° |
| 2026-03-27 14:39 | 41.33267 | 2.18260 | 1334 ft | 135 kts | 238° |
| 2026-03-27 14:39 | 41.32876 | 2.17112 | 1145 ft | 136 kts | 240° |
| 2026-03-27 14:39 | 41.32483 | 2.15960 | 963 ft | 135 kts | 240° |
| 2026-03-27 14:40 | 41.32093 | 2.14821 | 788 ft | 135 kts | 239° |
| 2026-03-27 14:40 | 41.31707 | 2.13689 | 601 ft | 134 kts | 239° |
| 2026-03-27 14:40 | 41.31316 | 2.12545 | 409 ft | 137 kts | 240° |
| 2026-03-27 14:40 | 41.30908 | 2.11368 | 340 ft | 158 kts | 242° |
| 2026-03-27 14:41 | 41.30453 | 2.10000 | 1096 ft | 160 kts | 242° |
| 2026-03-27 14:41 | 41.29983 | 2.08668 | 1645 ft | 163 kts | 239° |
| 2026-03-27 14:41 | 41.29462 | 2.07200 | 1860 ft | 189 kts | 241° |
| 2026-03-27 14:41 | 41.28873 | 2.05508 | 2244 ft | 214 kts | 242° |
| 2026-03-27 14:42 | 41.28231 | 2.03667 | 2832 ft | 223 kts | 242° |
| 2026-03-27 14:42 | 41.27661 | 2.01761 | 3012 ft | 225 kts | 257° |
| 2026-03-27 14:42 | 41.27728 | 1.99777 | 3044 ft | 231 kts | 286° |
| 2026-03-27 14:42 | 41.28599 | 1.97906 | 3044 ft | 234 kts | 316° |
| 2026-03-27 14:43 | 41.30049 | 1.96867 | 3033 ft | 241 kts | 346° |
| 2026-03-27 14:43 | 41.31649 | 1.96856 | 3032 ft | 244 kts | 15° |
| 2026-03-27 14:43 | 41.33112 | 1.97911 | 3301 ft | 238 kts | 47° |
| 2026-03-27 14:43 | 41.34205 | 1.99600 | 3862 ft | 242 kts | 51° |
| 2026-03-27 14:44 | 41.35236 | 2.01375 | 4026 ft | 242 kts | 51° |
| 2026-03-27 14:44 | 41.36245 | 2.03173 | 4056 ft | 242 kts | 52° |
| 2026-03-27 14:44 | 41.37254 | 2.04972 | 4041 ft | 241 kts | 52° |
| 2026-03-27 14:44 | 41.37919 | 2.06158 | 4032 ft | 243 kts | 52° |
| 2026-03-27 14:45 | 41.38923 | 2.07967 | 4031 ft | 243 kts | 52° |
| 2026-03-27 14:45 | 41.39925 | 2.09776 | 4021 ft | 243 kts | 52° |
| 2026-03-27 14:45 | 41.40896 | 2.12430 | 4032 ft | 244 kts | 71° |
| 2026-03-27 14:45 | 41.41412 | 2.14580 | 4037 ft | 243 kts | 71° |
| 2026-03-27 14:46 | 41.41907 | 2.16692 | 4027 ft | 244 kts | 72° |
| 2026-03-27 14:46 | 41.42417 | 2.18835 | 4016 ft | 242 kts | 72° |
| 2026-03-27 14:46 | 41.42759 | 2.20285 | 4018 ft | 243 kts | 72° |
| 2026-03-27 14:46 | 41.43266 | 2.22449 | 4020 ft | 244 kts | 72° |
| 2026-03-27 14:47 | 41.43770 | 2.24602 | 4021 ft | 242 kts | 72° |
| 2026-03-27 14:47 | 41.43934 | 2.26822 | 3991 ft | 245 kts | 100° |
| 2026-03-27 14:47 | 41.43315 | 2.28882 | 3878 ft | 238 kts | 128° |
| 2026-03-27 14:47 | 41.42124 | 2.30298 | 3467 ft | 237 kts | 148° |
| 2026-03-27 14:48 | 41.40666 | 2.31409 | 3127 ft | 233 kts | 152° |
| 2026-03-27 14:48 | 41.39182 | 2.32053 | 2865 ft | 219 kts | 184° |
| 2026-03-27 14:48 | 41.37844 | 2.31446 | 2633 ft | 202 kts | 223° |
| 2026-03-27 14:48 | 41.37043 | 2.29963 | 2358 ft | 188 kts | 245° |
| 2026-03-27 14:49 | 41.36602 | 2.28460 | 2313 ft | 163 kts | 246° |
| 2026-03-27 14:49 | 41.36228 | 2.27124 | 2288 ft | 151 kts | 243° |
| 2026-03-27 14:49 | 41.35836 | 2.25845 | 2299 ft | 148 kts | 241° |
| 2026-03-27 14:49 | 41.35413 | 2.24563 | 2313 ft | 153 kts | 241° |
| 2026-03-27 14:50 | 41.34981 | 2.23288 | 2169 ft | 153 kts | 240° |
| 2026-03-27 14:50 | 41.34547 | 2.22012 | 1966 ft | 151 kts | 240° |
| 2026-03-27 14:50 | 41.34140 | 2.20816 | 1765 ft | 135 kts | 239° |
| 2026-03-27 14:51 | 41.33361 | 2.18538 | 1373 ft | 134 kts | 238° |
| 2026-03-27 14:51 | 41.32974 | 2.17404 | 1178 ft | 137 kts | 239° |
| 2026-03-27 14:51 | 41.32587 | 2.16270 | 1014 ft | 135 kts | 239° |
| 2026-03-27 14:51 | 41.32209 | 2.15133 | 830 ft | 135 kts | 239° |
| 2026-03-27 14:52 | 41.31815 | 2.13989 | 661 ft | 134 kts | 239° |
| 2026-03-27 14:52 | 41.31437 | 2.12861 | 457 ft | 135 kts | 238° |
| 2026-03-27 14:52 | 41.31037 | 2.11721 | 303 ft | 136 kts | 240° |
| 2026-03-27 14:52 | 41.30651 | 2.10572 | 108 ft | 136 kts | 239° |
| 2026-03-27 14:53 | 41.30265 | 2.09466 | 22 ft | 125 kts | 244° |
| 2026-03-27 14:53 | 41.30009 | 2.08721 | 26 ft | 51 kts | 244° |
| 2026-03-27 14:53 | 41.29922 | 2.08367 | 28 ft | 36 kts | 269° |
| 2026-03-27 14:53 | 41.29941 | 2.08123 | 26 ft | 23 kts | 277° |
| 2026-03-27 14:54 | 41.29979 | 2.08026 | 23 ft | 10 kts | 342° |
| 2026-03-27 14:54 | 41.29993 | 2.07943 | 23 ft | 12 kts | 249° |
| 2026-03-27 14:54 | 41.29956 | 2.07833 | 22 ft | 14 kts | 244° |
| 2026-03-27 14:54 | 41.29971 | 2.07714 | 21 ft | 15 kts | 320° |
| 2026-03-27 14:55 | 41.30045 | 2.07644 | 24 ft | 10 kts | 333° |
| 2026-03-27 14:55 | 41.30083 | 2.07620 | 24 ft | 4 kts | 334° |
| 2026-03-27 14:55 | 41.30088 | 2.07617 | 25 ft | 0 kts | 334° |
| 2026-03-27 14:56 | 41.30104 | 2.07607 | 27 ft | 5 kts | 333° |
| 2026-03-27 14:56 | 41.30147 | 2.07602 | 26 ft | 7 kts | 27° |
| 2026-03-27 14:56 | 41.30159 | 2.07614 | 28 ft | 1 kts | 44° |
| 2026-03-27 14:56 | 41.30166 | 2.07622 | 27 ft | 0 kts | 40° |